| time (UTC) | temp F | wind direction | speed knots | gust knots | rain 1hr in | rain 24hr in | rain mn in | humidity % | barometer mb |
| 20260502163917 | 55 | 26 | 2.6 | 4.3 | 0.00 | 0.00 | 0.00 | 43 | 1014.4 |
| 20260502162937 | 55 | 315 | 1.7 | 6.1 | 0.00 | 0.00 | 0.00 | 41 | 1014.5 |
| 20260502161916 | 55 | 264 | 1.7 | 2.6 | 0.00 | 0.00 | 0.00 | 43 | 1014.7 |
| 20260502160937 | 54 | 358 | 2.6 | 6.1 | 0.00 | 0.00 | 0.00 | 47 | 1014.9 |
| 20260502151916 | 50 | 336 | 1.7 | 4.3 | 0.00 | 0.00 | 0.00 | 54 | 1015.4 |
| 20260502150916 | 50 | 25 | 3.5 | 7.0 | 0.00 | 0.00 | 0.00 | 52 | 1015.3 |
| 20260502122936 | 44 | 3 | 2.6 | 4.3 | 0.00 | 0.00 | 0.00 | 68 | 1015.5 |
| 20260502121917 | 44 | 197 | 0.9 | 2.6 | 0.00 | 0.00 | 0.00 | 69 | 1015.6 |
| 20260502120916 | 44 | 326 | 1.7 | 3.5 | 0.00 | 0.00 | 0.00 | 69 | 1015.8 |
| 20260502115916 | 43 | 239 | 1.7 | 1.7 | 0.00 | 0.00 | 0.00 | 70 | 1015.6 |
| 20260502114916 | 43 | 163 | 0.0 | 1.7 | 0.00 | 0.00 | 0.00 | 70 | 1015.6 |
| 20260502113916 | 43 | 64 | 0.9 | 1.7 | 0.00 | 0.00 | 0.00 | 71 | 1015.7 |
| 20260502112917 | 42 | 342 | 2.6 | 4.3 | 0.00 | 0.00 | 0.00 | 72 | 1015.6 |
| 20260502111917 | 42 | 36 | 0.9 | 1.7 | 0.00 | 0.00 | 0.00 | 71 | 1015.4 |
| 20260502110917 | 42 | 338 | 1.7 | 2.6 | 0.00 | 0.00 | 0.00 | 70 | 1015.4 |
| 20260502105916 | 43 | 238 | 0.0 | 0.9 | 0.00 | 0.00 | 0.00 | 69 | 1015.4 |
| 20260502104916 | 43 | 248 | 1.7 | 2.6 | 0.00 | 0.00 | 0.00 | 68 | 1015.3 |
| 20260502103916 | 43 | 21 | 2.6 | 4.3 | 0.00 | 0.00 | 0.00 | 68 | 1015.2 |
| 20260502102916 | 43 | 38 | 0.9 | 1.7 | 0.00 | 0.00 | 0.00 | 66 | 1015.2 |
| 20260502101917 | 44 | 235 | 0.9 | 1.7 | 0.00 | 0.00 | 0.00 | 67 | 1015.5 |
| 20260502100917 | 44 | 206 | 0.9 | 2.6 | 0.00 | 0.00 | 0.00 | 66 | 1015.5 |
| 20260502090916 | 46 | 242 | 0.0 | 2.6 | 0.00 | 0.00 | 0.00 | 59 | 1015.5 |
| 20260502070917 | 48 | 191 | 0.9 | 1.7 | 0.00 | 0.00 | 0.00 | 59 | 1014.9 |
| 20260502065916 | 49 | 324 | 1.7 | 3.5 | 0.00 | 0.00 | 0.00 | 61 | 1015.0 |
| 20260502064917 | 49 | 316 | 1.7 | 5.2 | 0.00 | 0.00 | 0.00 | 65 | 1015.0 |
| 20260502063916 | 49 | 319 | 1.7 | 2.6 | 0.00 | 0.00 | 0.00 | 67 | 1015.1 |
| 20260502062916 | 49 | 325 | 3.5 | 7.0 | 0.00 | 0.00 | 0.00 | 67 | 1015.1 |
| 20260502061916 | 50 | 359 | 3.5 | 4.3 | 0.00 | 0.00 | 0.00 | 69 | 1015.1 |
| 20260502060937 | 50 | 345 | 0.9 | 2.6 | 0.00 | 0.00 | 0.00 | 69 | 1015.1 |
| 20260502055917 | 50 | 187 | 2.6 | 4.3 | 0.00 | 0.00 | 0.00 | 69 | 1015.0 |
| 20260502054936 | 50 | 0 | 2.6 | 4.3 | 0.00 | 0.00 | 0.00 | 69 | 1015.0 |
| 20260502053916 | 50 | 252 | 0.9 | 7.0 | 0.00 | 0.00 | 0.00 | 68 | 1014.9 |
| 20260502052937 | 50 | 129 | 2.6 | 3.5 | 0.00 | 0.00 | 0.00 | 68 | 1014.9 |
| 20260502051916 | 50 | 352 | 0.9 | 1.7 | 0.00 | 0.00 | 0.00 | 67 | 1014.9 |
| 20260502050916 | 51 | 17 | 2.6 | 3.5 | 0.00 | 0.00 | 0.00 | 67 | 1015.0 |
| 20260502045916 | 51 | 348 | 0.9 | 2.6 | 0.00 | 0.00 | 0.00 | 66 | 1014.9 |
| 20260502044916 | 51 | 347 | 3.5 | 5.2 | 0.00 | 0.00 | 0.00 | 65 | 1014.9 |
| 20260502043937 | 51 | 12 | 0.9 | 2.6 | 0.00 | 0.00 | 0.00 | 65 | 1015.1 |
| 20260502042916 | 51 | 0.0 | 0.0 | 0.00 | 0.00 | 0.00 | 64 | 1015.1 | |
| 20260502041916 | 51 | 6 | 2.6 | 5.2 | 0.00 | 0.00 | 0.00 | 64 | 1015.0 |
| 20260502040937 | 52 | 42 | 1.7 | 2.6 | 0.00 | 0.00 | 0.00 | 65 | 1015.1 |
| 20260502035917 | 52 | 318 | 1.7 | 4.3 | 0.00 | 0.00 | 0.00 | 64 | 1015.1 |
| 20260502034956 | 52 | 308 | 1.7 | 5.2 | 0.00 | 0.00 | 0.00 | 64 | 1015.1 |
| 20260502033916 | 52 | 277 | 1.7 | 4.3 | 0.00 | 0.00 | 0.00 | 63 | 1015.1 |
| 20260502032917 | 52 | 345 | 2.6 | 7.0 | 0.00 | 0.00 | 0.00 | 63 | 1015.1 |
| 20260502031916 | 53 | 298 | 3.5 | 6.1 | 0.00 | 0.00 | 0.00 | 63 | 1015.1 |
| 20260502030916 | 53 | 337 | 0.9 | 5.2 | 0.00 | 0.00 | 0.00 | 64 | 1015.2 |
| 20260502025916 | 53 | 245 | 0.9 | 1.7 | 0.00 | 0.00 | 0.00 | 65 | 1015.0 |
| 20260502024916 | 54 | 1 | 1.7 | 6.1 | 0.00 | 0.00 | 0.00 | 65 | 1014.9 |
| 20260502023916 | 54 | 78 | 0.0 | 2.6 | 0.00 | 0.00 | 0.00 | 65 | 1014.8 |
| 20260502022916 | 54 | 22 | 0.9 | 4.3 | 0.00 | 0.00 | 0.00 | 65 | 1014.7 |
| 20260502021936 | 54 | 315 | 0.0 | 3.5 | 0.00 | 0.00 | 0.00 | 65 | 1014.5 |
| 20260502020916 | 54 | 230 | 1.7 | 8.7 | 0.00 | 0.00 | 0.00 | 66 | 1014.5 |
| 20260502015937 | 54 | 299 | 1.7 | 3.5 | 0.00 | 0.00 | 0.00 | 65 | 1014.2 |
| 20260502014936 | 55 | 297 | 0.9 | 1.7 | 0.00 | 0.00 | 0.00 | 64 | 1013.7 |
| 20260502013917 | 55 | 319 | 0.9 | 4.3 | 0.00 | 0.00 | 0.00 | 65 | 1013.7 |
| 20260502012916 | 55 | 309 | 1.7 | 7.8 | 0.00 | 0.00 | 0.00 | 64 | 1013.8 |
| 20260502011916 | 55 | 341 | 3.5 | 7.8 | 0.00 | 0.00 | 0.00 | 62 | 1013.5 |
| 20260502010937 | 56 | 19 | 4.3 | 6.1 | 0.00 | 0.00 | 0.00 | 59 | 1013.1 |
| 20260502005916 | 58 | 352 | 2.6 | 7.0 | 0.00 | 0.00 | 0.00 | 56 | 1012.8 |
| 20260502004917 | 59 | 356 | 2.6 | 4.3 | 0.00 | 0.00 | 0.00 | 53 | 1012.4 |
| 20260502003917 | 61 | 341 | 4.3 | 7.8 | 0.00 | 0.00 | 0.00 | 47 | 1011.9 |
| 20260502002916 | 62 | 339 | 3.5 | 7.8 | 0.00 | 0.00 | 0.00 | 41 | 1011.6 |
| 20260502001916 | 62 | 283 | 0.0 | 2.6 | 0.00 | 0.00 | 0.00 | 40 | 1011.0 |
| 20260502000917 | 63 | 319 | 1.7 | 2.6 | 0.00 | 0.00 | 0.00 | 39 | 1010.9 |
| 20260501235916 | 63 | 304 | 0.0 | 1.7 | 0.00 | 0.00 | 0.00 | 38 | 1010.8 |
| 20260501234916 | 64 | 302 | 0.9 | 4.3 | 0.00 | 0.00 | 0.00 | 38 | 1010.5 |
| 20260501233936 | 64 | 280 | 0.9 | 1.7 | 0.00 | 0.00 | 0.00 | 37 | 1010.2 |
| 20260501232916 | 64 | 278 | 2.6 | 3.5 | 0.00 | 0.00 | 0.00 | 37 | 1010.3 |
| 20260501231917 | 65 | 293 | 0.9 | 4.3 | 0.00 | 0.00 | 0.00 | 36 | 1010.2 |
| 20260501230916 | 65 | 248 | 1.7 | 2.6 | 0.00 | 0.00 | 0.00 | 36 | 1010.3 |
| 20260501225916 | 65 | 349 | 1.7 | 4.3 | 0.00 | 0.00 | 0.00 | 35 | 1010.3 |
| 20260501224937 | 66 | 325 | 1.7 | 2.6 | 0.00 | 0.00 | 0.00 | 35 | 1010.3 |
| 20260501223917 | 67 | 282 | 1.7 | 2.6 | 0.00 | 0.00 | 0.00 | 34 | 1010.1 |
| 20260501222916 | 67 | 254 | 2.6 | 6.1 | 0.00 | 0.00 | 0.00 | 34 | 1010.3 |
| 20260501221917 | 67 | 318 | 2.6 | 7.8 | 0.00 | 0.00 | 0.00 | 33 | 1010.2 |
| 20260501220916 | 67 | 310 | 0.9 | 6.1 | 0.00 | 0.00 | 0.00 | 30 | 1010.1 |
| 20260501215917 | 68 | 264 | 2.6 | 13.0 | 0.00 | 0.00 | 0.00 | 30 | 1010.1 |
| 20260501214937 | 70 | 279 | 1.7 | 3.5 | 0.00 | 0.00 | 0.00 | 30 | 1009.9 |
| 20260501213916 | 70 | 321 | 1.7 | 3.5 | 0.00 | 0.00 | 0.00 | 27 | 1009.9 |
| 20260501212916 | 70 | 324 | 5.2 | 10.4 | 0.00 | 0.00 | 0.00 | 26 | 1009.9 |
| 20260501211916 | 71 | 259 | 5.2 | 12.2 | 0.00 | 0.00 | 0.00 | 27 | 1009.9 |
| 20260501210937 | 71 | 262 | 5.2 | 10.4 | 0.00 | 0.00 | 0.00 | 27 | 1009.8 |
| 20260501205916 | 71 | 235 | 7.0 | 14.8 | 0.00 | 0.00 | 0.00 | 25 | 1010.0 |
| 20260501204916 | 71 | 243 | 7.0 | 12.2 | 0.00 | 0.00 | 0.00 | 26 | 1009.8 |
| 20260501203916 | 71 | 213 | 6.1 | 7.8 | 0.00 | 0.00 | 0.00 | 30 | 1010.0 |
| 20260501202916 | 70 | 244 | 3.5 | 7.8 | 0.00 | 0.00 | 0.00 | 27 | 1010.0 |
| 20260501201916 | 71 | 234 | 5.2 | 8.7 | 0.00 | 0.00 | 0.00 | 30 | 1010.0 |
| 20260501200916 | 69 | 232 | 5.2 | 9.6 | 0.00 | 0.00 | 0.00 | 26 | 1010.2 |
| 20260501195916 | 69 | 239 | 3.5 | 6.1 | 0.00 | 0.00 | 0.00 | 26 | 1010.3 |
| 20260501194916 | 69 | 225 | 4.3 | 7.0 | 0.00 | 0.00 | 0.00 | 26 | 1010.3 |
| 20260501193916 | 71 | 257 | 3.5 | 10.4 | 0.00 | 0.00 | 0.00 | 26 | 1010.5 |
| 20260501192916 | 70 | 234 | 4.3 | 6.1 | 0.00 | 0.00 | 0.00 | 28 | 1010.6 |
| 20260501191937 | 71 | 237 | 6.1 | 10.4 | 0.00 | 0.00 | 0.00 | 24 | 1010.8 |
| 20260501190916 | 71 | 259 | 5.2 | 8.7 | 0.00 | 0.00 | 0.00 | 25 | 1010.9 |
| 20260501185835 | 71 | 271 | 1.7 | 6.1 | 0.00 | 0.00 | 0.00 | 32 | 1011.2 |
| 20260501184815 | 70 | 214 | 2.6 | 4.3 | 0.00 | 0.00 | 0.00 | 30 | 1011.1 |
| 20260501183816 | 69 | 215 | 4.3 | 6.1 | 0.00 | 0.00 | 0.00 | 34 | 1011.3 |
| 20260501182815 | 68 | 203 | 6.1 | 9.6 | 0.00 | 0.00 | 0.00 | 32 | 1011.4 |
| 20260501181836 | 68 | 186 | 4.3 | 7.0 | 0.00 | 0.00 | 0.00 | 29 | 1011.6 |
| 20260501180815 | 67 | 192 | 0.9 | 3.5 | 0.00 | 0.00 | 0.00 | 33 | 1011.6 |
| 20260501175816 | 67 | 302 | 1.7 | 3.5 | 0.00 | 0.00 | 0.00 | 33 | 1011.9 |
| 20260501174816 | 66 | 230 | 1.7 | 6.1 | 0.00 | 0.00 | 0.00 | 39 | 1012.2 |
| 20260501173815 | 66 | 203 | 6.1 | 9.6 | 0.00 | 0.00 | 0.00 | 33 | 1012.4 |
| 20260501172816 | 65 | 120 | 2.6 | 3.5 | 0.00 | 0.00 | 0.00 | 38 | 1012.3 |
| 20260501171815 | 64 | 50 | 6.1 | 8.7 | 0.00 | 0.00 | 0.00 | 42 | 1012.8 |